createdAt,value
2023-04-25T00:02:13.306Z,4.80
2023-04-25T00:04:40.304Z,5.07
2023-04-25T00:07:07.203Z,3.95
2023-04-25T00:09:34.116Z,3.97
2023-04-25T00:12:02.260Z,6.40
2023-04-25T00:14:38.363Z,4.82
2023-04-25T00:17:12.186Z,5.57
2023-04-25T00:19:38.781Z,5.55
2023-04-25T00:22:29.855Z,6.63
2023-04-25T00:25:04.272Z,4.97
2023-04-25T00:27:30.827Z,5.18
2023-04-25T00:29:57.363Z,8.15
2023-04-25T00:32:23.984Z,6.95
2023-04-25T00:34:50.663Z,6.22
2023-04-25T00:37:17.164Z,6.07
2023-04-25T00:39:43.568Z,6.18
2023-04-25T00:42:10.840Z,11.20
2023-04-25T00:44:38.174Z,8.07
2023-04-25T00:47:05.795Z,7.55
2023-04-25T00:49:32.282Z,7.53
2023-04-25T00:51:59.144Z,8.40
2023-04-25T00:54:26.129Z,9.57
2023-04-25T00:56:53.434Z,7.15
2023-04-25T00:59:21.390Z,6.47
2023-04-25T01:01:48.266Z,6.05
2023-04-25T01:04:14.821Z,9.95
2023-04-25T01:06:41.818Z,8.75
2023-04-25T01:09:08.569Z,8.35
2023-04-25T01:11:35.572Z,5.68
2023-04-25T01:14:03.152Z,7.38
2023-04-25T01:16:29.954Z,9.85
2023-04-25T01:18:56.888Z,6.95
2023-04-25T01:21:23.354Z,6.03
2023-04-25T01:23:50.317Z,7.45
2023-04-25T01:26:17.522Z,7.80
2023-04-25T01:28:44.393Z,7.82
2023-04-25T01:31:13.741Z,6.85
2023-04-25T01:33:40.238Z,5.80
2023-04-25T01:36:07.537Z,6.72
2023-04-25T01:38:36.302Z,7.38
2023-04-25T01:41:02.908Z,8.20
2023-04-25T01:43:50.126Z,7.20
2023-04-25T01:46:37.171Z,9.57
2023-04-25T01:49:25.215Z,7.10
2023-04-25T01:52:11.952Z,6.88
2023-04-25T01:55:02.232Z,7.90
2023-04-25T01:57:50.544Z,9.00
2023-04-25T02:00:19.194Z,7.45
2023-04-25T02:02:45.825Z,9.73
2023-04-25T02:05:36.740Z,10.27
2023-04-25T02:08:09.613Z,13.48
2023-04-25T02:10:37.492Z,10.25
2023-04-25T02:13:29.924Z,9.18
2023-04-25T02:16:19.048Z,10.88
2023-04-25T02:18:45.904Z,8.77
2023-04-25T02:21:12.737Z,9.25
2023-04-25T02:23:39.461Z,13.70
2023-04-25T02:26:06.401Z,11.65
2023-04-25T02:28:33.080Z,8.73
2023-04-25T02:30:59.621Z,9.88
2023-04-25T02:33:26.482Z,10.88
2023-04-25T02:35:52.933Z,8.75
2023-04-25T02:38:22.328Z,8.82
2023-04-25T02:40:48.870Z,10.82
2023-04-25T02:43:15.357Z,13.27
2023-04-25T02:45:41.822Z,12.23
2023-04-25T02:48:08.655Z,10.18
2023-04-25T02:50:35.247Z,14.35
2023-04-25T02:53:01.884Z,10.93
2023-04-25T02:55:35.150Z,10.02
2023-04-25T02:58:03.562Z,12.80
2023-04-25T03:00:39.909Z,16.13
2023-04-25T03:03:06.555Z,15.07
2023-04-25T03:05:33.264Z,12.82
2023-04-25T03:07:59.831Z,12.63
2023-04-25T03:10:27.575Z,15.45
2023-04-25T03:12:54.688Z,13.00
2023-04-25T03:15:21.389Z,13.77
2023-04-25T03:17:48.062Z,14.00
2023-04-25T03:20:14.529Z,18.50
2023-04-25T03:22:41.391Z,15.05
2023-04-25T03:25:08.690Z,13.95
2023-04-25T03:27:35.252Z,13.55
2023-04-25T03:30:03.666Z,13.68
2023-04-25T03:32:30.475Z,12.57
2023-04-25T03:34:57.120Z,14.23
2023-04-25T03:37:25.904Z,13.13
2023-04-25T03:39:52.578Z,13.52
2023-04-25T03:42:19.187Z,15.65
2023-04-25T03:44:46.822Z,17.85
2023-04-25T03:47:14.269Z,14.38
2023-04-25T03:49:41.038Z,15.50
2023-04-25T03:52:07.909Z,14.57
2023-04-25T03:54:38.415Z,14.98
2023-04-25T03:57:08.466Z,15.35
2023-04-25T03:59:38.211Z,15.18
2023-04-25T04:02:05.790Z,15.52
2023-04-25T04:04:35.001Z,19.63
2023-04-25T04:07:01.695Z,15.52
2023-04-25T04:09:31.698Z,16.27
2023-04-25T04:12:02.313Z,15.98
2023-04-25T04:14:31.004Z,18.45
2023-04-25T04:16:57.724Z,16.17
2023-04-25T04:19:24.310Z,17.80
2023-04-25T04:21:59.827Z,18.33
2023-04-25T04:24:26.693Z,17.02
2023-04-25T04:26:58.232Z,15.52
2023-04-25T04:32:24.867Z,17.30
2023-04-25T04:34:53.051Z,16.83
2023-04-25T04:37:22.823Z,16.70
2023-04-25T04:39:49.507Z,16.08
2023-04-25T04:42:39.200Z,15.90
2023-04-25T04:45:15.140Z,17.90
2023-04-25T04:48:08.109Z,17.98
2023-04-25T04:50:54.356Z,16.45
2023-04-25T04:53:37.936Z,17.95
2023-04-25T04:56:21.828Z,16.90
2023-04-25T04:59:05.367Z,17.83
2023-04-25T05:01:41.931Z,16.52
2023-04-25T05:04:34.681Z,17.65
2023-04-25T05:07:06.754Z,15.65
2023-04-25T05:09:48.552Z,16.42
2023-04-25T05:12:36.982Z,23.38
2023-04-25T05:15:26.919Z,15.60
2023-04-25T05:18:31.764Z,18.10
2023-04-25T05:21:21.509Z,21.07
2023-04-25T05:24:02.765Z,21.48
2023-04-25T05:26:47.869Z,16.77
2023-04-25T05:29:43.818Z,17.30
2023-04-25T05:32:23.729Z,18.10
2023-04-25T05:34:51.123Z,21.88
2023-04-25T05:37:25.376Z,17.02
2023-04-25T05:39:56.023Z,17.50
2023-04-25T05:42:41.246Z,20.40
2023-04-25T05:45:23.142Z,19.20
2023-04-25T05:48:15.810Z,20.48
2023-04-25T05:50:53.226Z,20.67
2023-04-25T05:53:38.781Z,20.30
2023-04-25T05:56:06.421Z,22.85
2023-04-25T05:58:33.002Z,18.52
2023-04-25T06:01:00.631Z,20.35
2023-04-25T06:03:27.487Z,20.50
2023-04-25T06:05:54.656Z,19.77
2023-04-25T06:08:21.175Z,18.35
2023-04-25T06:10:47.791Z,18.58
2023-04-25T06:13:14.354Z,19.60
2023-04-25T06:15:41.341Z,17.73
2023-04-25T06:18:08.006Z,20.17
2023-04-25T06:20:34.602Z,15.57
2023-04-25T06:23:01.907Z,19.40
2023-04-25T06:25:38.451Z,16.65
2023-04-25T06:28:05.205Z,20.08
2023-04-25T06:30:31.913Z,14.10
2023-04-25T06:33:04.521Z,14.02
2023-04-25T06:35:32.064Z,15.20
2023-04-25T06:37:59.216Z,17.27
2023-04-25T06:40:26.310Z,16.25
2023-04-25T06:42:53.130Z,17.58
2023-04-25T06:45:43.553Z,15.70
2023-04-25T06:48:11.107Z,19.13
2023-04-25T06:50:38.179Z,15.75
2023-04-25T06:53:04.710Z,21.45
2023-04-25T06:55:31.597Z,22.75
2023-04-25T06:58:18.199Z,22.17
2023-04-25T07:03:35.103Z,16.60
2023-04-25T07:06:07.498Z,15.25
2023-04-25T07:08:34.187Z,17.88
2023-04-25T07:11:01.004Z,16.25
2023-04-25T07:13:28.445Z,16.00
2023-04-25T07:15:57.135Z,15.00
2023-04-25T07:18:24.122Z,23.08
2023-04-25T07:20:51.259Z,21.77
2023-04-25T07:23:18.659Z,14.30
2023-04-25T07:25:46.080Z,19.70
2023-04-25T07:28:14.770Z,17.80
2023-04-25T07:30:41.477Z,22.33
2023-04-25T07:33:08.046Z,20.90
2023-04-25T07:35:34.614Z,16.13
2023-04-25T07:38:01.207Z,22.45
2023-04-25T07:40:27.911Z,23.33
2023-04-25T07:42:59.860Z,20.85
2023-04-25T07:45:38.732Z,30.02
2023-04-25T07:48:05.823Z,20.55
2023-04-25T07:50:35.898Z,25.65
2023-04-25T07:53:02.491Z,23.27
2023-04-25T07:55:34.462Z,27.40
2023-04-25T07:58:09.784Z,21.65
2023-04-25T08:00:39.260Z,19.67
2023-04-25T08:03:24.430Z,20.48
2023-04-25T08:05:51.775Z,24.10
2023-04-25T08:08:19.554Z,15.82
2023-04-25T08:10:46.324Z,25.27
2023-04-25T08:13:13.554Z,17.08
2023-04-25T08:15:41.209Z,17.38
2023-04-25T08:18:07.779Z,19.85
2023-04-25T08:20:34.612Z,16.02
2023-04-25T08:23:03.620Z,17.08
2023-04-25T08:25:52.725Z,15.02
2023-04-25T08:28:22.838Z,19.38
2023-04-25T08:30:49.367Z,15.30
2023-04-25T08:33:17.600Z,14.02
2023-04-25T08:36:00.043Z,13.80
2023-04-25T08:38:27.781Z,19.25
2023-04-25T08:40:56.330Z,15.68
2023-04-25T08:43:24.498Z,16.02
2023-04-25T08:45:55.173Z,16.50
2023-04-25T08:48:35.891Z,15.48
2023-04-25T08:53:43.679Z,13.77
2023-04-25T08:56:14.180Z,14.60
2023-04-25T09:01:07.828Z,13.18
2023-04-25T09:03:42.896Z,9.30
2023-04-25T09:06:11.827Z,13.98
2023-04-25T09:08:39.443Z,17.45
2023-04-25T09:11:05.880Z,16.30
2023-04-25T09:13:32.412Z,22.23
2023-04-25T09:16:23.071Z,14.93
2023-04-25T09:19:08.401Z,14.20
2023-04-25T09:21:35.816Z,14.45
2023-04-25T09:24:03.086Z,14.70
2023-04-25T09:26:29.622Z,10.90
2023-04-25T09:29:08.099Z,15.10
2023-04-25T09:31:36.625Z,18.90
2023-04-25T09:34:05.101Z,12.23
2023-04-25T09:36:41.553Z,12.32
2023-04-25T09:39:45.878Z,16.63
2023-04-25T09:42:16.998Z,10.70
2023-04-25T09:44:47.724Z,11.70
2023-04-25T09:47:17.366Z,13.07
2023-04-25T09:49:45.318Z,13.88
2023-04-25T09:52:18.831Z,15.50
2023-04-25T09:54:55.220Z,19.70
2023-04-25T09:57:29.399Z,16.25
2023-04-25T09:59:57.478Z,14.02
2023-04-25T10:02:28.301Z,10.38
2023-04-25T10:05:04.409Z,14.50
2023-04-25T10:07:38.997Z,14.77
2023-04-25T10:10:09.695Z,14.75
2023-04-25T10:12:36.934Z,13.55
2023-04-25T10:15:05.090Z,11.05
2023-04-25T10:17:33.959Z,13.55
2023-04-25T10:20:04.253Z,10.80
2023-04-25T10:22:35.180Z,10.63
2023-04-25T10:25:04.788Z,14.35
2023-04-25T10:27:32.028Z,14.30
2023-04-25T10:30:25.077Z,8.38
2023-04-25T10:32:51.854Z,14.90
2023-04-25T10:35:20.682Z,11.30
2023-04-25T10:38:10.595Z,16.45
2023-04-25T10:40:37.626Z,12.40
2023-04-25T10:43:32.255Z,10.95
2023-04-25T10:46:01.480Z,14.48
2023-04-25T10:48:30.264Z,10.98
2023-04-25T10:51:10.572Z,10.55
2023-04-25T10:53:38.077Z,6.78
2023-04-25T10:56:22.161Z,6.40
2023-04-25T10:58:51.309Z,12.52
2023-04-25T11:01:26.797Z,8.07
2023-04-25T11:04:00.401Z,11.88
2023-04-25T11:06:42.134Z,8.50
2023-04-25T11:09:16.552Z,7.95
2023-04-25T11:11:43.665Z,6.78
2023-04-25T11:14:14.460Z,9.18
2023-04-25T11:16:42.925Z,11.23
2023-04-25T11:19:11.037Z,6.47
2023-04-25T11:21:38.123Z,6.93
2023-04-25T11:24:05.163Z,6.43
2023-04-25T11:26:31.886Z,8.93
2023-04-25T11:29:00.671Z,6.93
2023-04-25T11:31:27.228Z,7.05
2023-04-25T11:34:01.376Z,8.25
2023-04-25T11:36:28.344Z,9.63
2023-04-25T11:38:55.119Z,8.75
2023-04-25T11:41:23.141Z,6.15
2023-04-25T11:43:50.980Z,7.88
2023-04-25T11:46:17.552Z,5.28
2023-04-25T11:48:44.605Z,8.27
2023-04-25T11:51:11.279Z,8.02
2023-04-25T11:53:42.268Z,8.32
2023-04-25T11:56:12.794Z,8.32
2023-04-25T11:58:56.434Z,6.85
2023-04-25T12:01:30.972Z,6.85
2023-04-25T12:04:14.917Z,7.47
2023-04-25T12:06:43.427Z,7.78
2023-04-25T12:09:11.865Z,6.28
2023-04-25T12:11:54.945Z,7.00
2023-04-25T12:14:35.181Z,7.50
2023-04-25T12:17:04.103Z,8.63
2023-04-25T12:19:41.446Z,7.97
2023-04-25T12:22:35.001Z,13.88
2023-04-25T12:25:01.617Z,7.38
2023-04-25T12:27:28.310Z,6.07
2023-04-25T12:29:56.814Z,7.72
2023-04-25T12:32:23.989Z,8.55
2023-04-25T12:34:50.880Z,7.60
2023-04-25T12:37:17.465Z,8.98
2023-04-25T12:39:44.265Z,10.25
2023-04-25T12:42:12.718Z,6.05
2023-04-25T12:44:40.310Z,6.47
2023-04-25T12:47:06.934Z,7.20
2023-04-25T12:49:33.823Z,9.77
2023-04-25T12:52:00.389Z,6.35
2023-04-25T12:54:27.073Z,13.65
2023-04-25T12:56:53.792Z,7.00
2023-04-25T12:59:21.428Z,8.45
2023-04-25T13:01:48.452Z,7.20
2023-04-25T13:04:15.005Z,7.85
2023-04-25T13:06:41.638Z,9.18
2023-04-25T13:09:08.241Z,5.03
2023-04-25T13:11:34.894Z,5.00
2023-04-25T13:14:02.059Z,10.30
2023-04-25T13:16:28.630Z,6.00
2023-04-25T13:18:57.002Z,11.85
2023-04-25T13:21:23.538Z,7.00
2023-04-25T13:23:50.130Z,11.70
2023-04-25T13:26:17.390Z,9.73
2023-04-25T13:28:44.921Z,6.47
2023-04-25T13:31:12.192Z,8.30
2023-04-25T13:33:38.930Z,11.27
2023-04-25T13:36:06.678Z,12.82
2023-04-25T13:38:33.293Z,7.88
2023-04-25T13:40:59.856Z,7.35
2023-04-25T13:43:26.447Z,8.35
2023-04-25T13:45:52.960Z,8.13
2023-04-25T13:48:20.829Z,11.02
2023-04-25T13:50:47.332Z,7.10
2023-04-25T13:53:13.882Z,7.88
2023-04-25T13:55:40.545Z,9.43
2023-04-25T13:58:08.926Z,11.00
2023-04-25T14:00:40.000Z,12.32
2023-04-25T14:03:08.742Z,8.93
2023-04-25T14:05:40.387Z,10.00
2023-04-25T14:08:10.934Z,10.20
2023-04-25T14:10:37.953Z,11.15
2023-04-25T14:13:06.177Z,9.55
2023-04-25T14:15:33.469Z,9.95
2023-04-25T14:18:01.387Z,11.13
2023-04-25T14:20:28.586Z,10.45
2023-04-25T14:22:56.955Z,8.18
2023-04-25T14:25:24.356Z,11.30
2023-04-25T14:27:51.071Z,11.00
2023-04-25T14:30:21.910Z,10.05
2023-04-25T14:32:51.636Z,13.38
2023-04-25T14:35:18.660Z,16.73
2023-04-25T14:37:45.446Z,13.68
2023-04-25T14:40:14.122Z,14.88
2023-04-25T14:42:41.261Z,13.68
2023-04-25T14:45:09.690Z,12.25
2023-04-25T14:47:37.775Z,13.00
2023-04-25T14:50:05.499Z,16.92
2023-04-25T14:52:32.158Z,9.30
2023-04-25T14:55:00.873Z,21.15
2023-04-25T14:57:27.493Z,13.52
2023-04-25T14:59:53.969Z,14.35
2023-04-25T15:02:20.531Z,9.75
2023-04-25T15:04:47.371Z,13.73
2023-04-25T15:07:14.776Z,11.82
2023-04-25T15:09:42.262Z,8.88
2023-04-25T15:12:08.934Z,10.43
2023-04-25T15:14:35.525Z,18.52
2023-04-25T15:17:02.110Z,12.68
2023-04-25T15:19:29.212Z,12.38
2023-04-25T15:21:56.391Z,12.93
2023-04-25T15:24:23.091Z,9.98
2023-04-25T15:26:49.722Z,11.52
2023-04-25T15:29:16.421Z,13.50
2023-04-25T15:31:43.055Z,14.15
2023-04-25T15:34:09.628Z,12.50
2023-04-25T15:36:36.116Z,10.32
2023-04-25T15:39:02.709Z,8.82
2023-04-25T15:41:29.926Z,10.00
2023-04-25T15:43:56.642Z,7.47
2023-04-25T15:46:23.867Z,12.10
2023-04-25T15:48:50.411Z,11.77
2023-04-25T15:51:17.372Z,10.07
2023-04-25T15:53:43.920Z,10.20
2023-04-25T15:56:11.075Z,9.23
2023-04-25T15:58:37.968Z,8.30
2023-04-25T16:01:04.992Z,10.10
2023-04-25T16:03:35.593Z,10.25
2023-04-25T16:06:03.174Z,8.77
2023-04-25T16:08:34.389Z,11.52
2023-04-25T16:11:02.950Z,10.30
2023-04-25T16:13:29.971Z,7.10
2023-04-25T16:15:56.818Z,10.38
2023-04-25T16:18:26.594Z,9.35
2023-04-25T16:20:53.476Z,9.02
2023-04-25T16:23:20.222Z,7.25
2023-04-25T16:25:47.018Z,9.23
2023-04-25T16:28:13.462Z,8.23
2023-04-25T16:30:40.015Z,11.55
2023-04-25T16:33:06.552Z,12.57
2023-04-25T16:35:33.156Z,11.48
2023-04-25T16:37:59.869Z,14.25
2023-04-25T16:40:27.121Z,8.88
2023-04-25T16:42:53.680Z,16.30
2023-04-25T16:45:21.240Z,10.90
2023-04-25T16:47:47.763Z,8.60
2023-04-25T16:50:15.201Z,8.18
2023-04-25T16:52:43.076Z,7.70
2023-04-25T16:55:10.947Z,13.60
2023-04-25T16:57:37.576Z,9.93
2023-04-25T17:00:06.242Z,10.70
2023-04-25T17:02:33.040Z,10.70
2023-04-25T17:04:59.649Z,7.32
2023-04-25T17:07:26.613Z,16.15
2023-04-25T17:09:53.387Z,7.07
2023-04-25T17:12:20.062Z,8.18
2023-04-25T17:14:46.904Z,8.00
2023-04-25T17:17:13.396Z,7.47
2023-04-25T17:19:40.178Z,16.00
2023-04-25T17:22:07.015Z,6.72
2023-04-25T17:24:33.552Z,10.32
2023-04-25T17:27:01.668Z,9.80
2023-04-25T17:29:28.268Z,9.10
2023-04-25T17:31:56.957Z,12.75
2023-04-25T17:34:23.437Z,8.63
2023-04-25T17:36:50.271Z,9.77
2023-04-25T17:39:17.644Z,10.55
2023-04-25T17:41:44.727Z,10.73
2023-04-25T17:44:11.423Z,10.50
2023-04-25T17:46:37.921Z,10.13
2023-04-25T17:49:04.619Z,13.40
2023-04-25T17:51:31.625Z,13.10
2023-04-25T17:53:58.366Z,17.88
2023-04-25T17:56:26.993Z,11.30
2023-04-25T17:58:56.535Z,9.18
2023-04-25T18:01:23.193Z,17.88
2023-04-25T18:03:55.155Z,8.88
2023-04-25T18:06:21.990Z,12.93
2023-04-25T18:08:49.574Z,20.20
2023-04-25T18:11:16.569Z,10.93
2023-04-25T18:13:43.048Z,14.20
2023-04-25T18:16:09.882Z,14.00
2023-04-25T18:18:36.781Z,10.55
2023-04-25T18:21:04.048Z,15.40
2023-04-25T18:23:33.684Z,13.95
2023-04-25T18:26:00.117Z,7.53
2023-04-25T18:28:26.698Z,11.77
2023-04-25T18:30:54.243Z,8.43
2023-04-25T18:33:22.488Z,9.88
2023-04-25T18:35:58.748Z,9.38
2023-04-25T18:41:00.094Z,9.20
2023-04-25T18:43:33.778Z,12.45
2023-04-25T18:46:00.513Z,9.95
2023-04-25T18:48:27.567Z,8.93
2023-04-25T18:50:54.285Z,12.40
2023-04-25T18:53:20.732Z,10.93
2023-04-25T18:55:47.307Z,8.50
2023-04-25T18:58:13.771Z,9.68
2023-04-25T19:00:40.255Z,11.32
2023-04-25T19:03:07.612Z,9.88
2023-04-25T19:05:34.170Z,8.27
2023-04-25T19:08:00.820Z,11.77
2023-04-25T19:10:28.703Z,10.32
2023-04-25T19:12:55.608Z,13.45
2023-04-25T19:15:22.647Z,10.18
2023-04-25T19:17:49.296Z,7.25
2023-04-25T19:20:16.346Z,8.73
2023-04-25T19:22:43.207Z,10.82
2023-04-25T19:25:11.404Z,6.72
2023-04-25T19:27:38.697Z,8.15
2023-04-25T19:30:08.744Z,14.25
2023-04-25T19:32:36.066Z,11.00
2023-04-25T19:35:07.102Z,8.15
2023-04-25T19:37:34.464Z,8.85
2023-04-25T19:40:01.123Z,16.17
2023-04-25T19:42:27.573Z,11.35
2023-04-25T19:44:54.117Z,9.32
2023-04-25T19:47:20.635Z,12.18
2023-04-25T19:49:47.381Z,8.02
2023-04-25T19:52:14.951Z,9.82
2023-04-25T19:54:45.435Z,5.40
2023-04-25T19:59:39.737Z,17.45
2023-04-25T20:02:09.085Z,13.80
2023-04-25T20:04:35.831Z,7.78
2023-04-25T20:07:02.462Z,9.90
2023-04-25T20:09:28.924Z,16.38
2023-04-25T20:11:55.539Z,7.75
2023-04-25T20:14:22.162Z,10.90
2023-04-25T20:16:48.660Z,6.30
2023-04-25T20:19:15.654Z,11.73
2023-04-25T20:21:42.175Z,11.00
2023-04-25T20:24:08.685Z,12.30
2023-04-25T20:26:35.581Z,11.63
2023-04-25T20:29:02.190Z,7.07
2023-04-25T20:31:29.745Z,7.88
2023-04-25T20:33:56.262Z,9.38
2023-04-25T20:36:22.807Z,9.63
2023-04-25T20:38:49.537Z,10.43
2023-04-25T20:41:16.290Z,10.70
2023-04-25T20:43:42.991Z,11.65
2023-04-25T20:46:10.303Z,15.88
2023-04-25T20:48:36.989Z,7.88
2023-04-25T20:51:03.988Z,9.65
2023-04-25T20:53:30.686Z,14.30
2023-04-25T20:55:57.378Z,12.27
2023-04-25T20:58:23.982Z,9.25
2023-04-25T21:00:51.264Z,14.30
2023-04-25T21:03:18.088Z,13.70
2023-04-25T21:05:44.734Z,9.10
2023-04-25T21:08:11.449Z,7.50
2023-04-25T21:10:38.092Z,9.23
2023-04-25T21:13:05.053Z,8.20
2023-04-25T21:15:32.147Z,10.30
2023-04-25T21:17:58.750Z,13.32
2023-04-25T21:20:25.627Z,12.13
2023-04-25T21:22:54.151Z,9.32
2023-04-25T21:25:25.245Z,6.75
2023-04-25T21:27:52.989Z,14.77
2023-04-25T21:30:23.536Z,10.27
2023-04-25T21:32:51.890Z,10.25
2023-04-25T21:35:20.166Z,8.88
2023-04-25T21:37:47.109Z,10.55
2023-04-25T21:40:14.433Z,12.70
2023-04-25T21:42:45.710Z,10.65
2023-04-25T21:45:12.261Z,12.25
2023-04-25T21:47:39.163Z,13.32
2023-04-25T21:50:06.219Z,10.93
2023-04-25T21:52:32.803Z,11.45
2023-04-25T21:54:59.299Z,11.52
2023-04-25T21:57:26.400Z,10.63
2023-04-25T21:59:53.607Z,8.25
2023-04-25T22:02:20.480Z,11.02
2023-04-25T22:04:47.716Z,9.57
2023-04-25T22:07:15.320Z,11.43
2023-04-25T22:09:53.781Z,12.70
2023-04-25T22:12:21.407Z,6.55
2023-04-25T22:14:48.931Z,11.75
2023-04-25T22:17:15.472Z,8.70
2023-04-25T22:19:43.315Z,15.32
2023-04-25T22:22:09.963Z,6.03
2023-04-25T22:24:37.098Z,8.73
2023-04-25T22:27:03.879Z,11.75
2023-04-25T22:29:30.453Z,8.73
2023-04-25T22:31:57.168Z,13.07
2023-04-25T22:34:23.727Z,15.63
2023-04-25T22:36:50.752Z,12.00
2023-04-25T22:39:19.171Z,14.93
2023-04-25T22:41:46.433Z,14.73
2023-04-25T22:44:12.917Z,14.05
2023-04-25T22:46:39.429Z,11.68
2023-04-25T22:49:06.087Z,10.00
2023-04-25T22:51:33.096Z,13.45
2023-04-25T22:54:00.506Z,16.23
2023-04-25T22:56:30.350Z,14.48
2023-04-25T22:58:57.029Z,12.40
2023-04-25T23:01:24.964Z,15.55
2023-04-25T23:03:51.681Z,11.82
2023-04-25T23:06:18.982Z,12.40
2023-04-25T23:08:45.550Z,10.52
2023-04-25T23:11:12.494Z,9.75
2023-04-25T23:13:39.355Z,10.15
2023-04-25T23:16:10.910Z,9.70
2023-04-25T23:18:39.273Z,9.00
2023-04-25T23:21:11.237Z,10.93
2023-04-25T23:23:38.797Z,9.85
2023-04-25T23:26:11.687Z,9.02
2023-04-25T23:28:41.708Z,7.63
2023-04-25T23:31:10.111Z,5.53
2023-04-25T23:33:36.950Z,16.23
2023-04-25T23:36:03.623Z,6.75
2023-04-25T23:38:30.416Z,9.32
2023-04-25T23:40:56.916Z,10.80
2023-04-25T23:43:23.555Z,10.90
2023-04-25T23:45:50.110Z,13.93
2023-04-25T23:48:16.734Z,11.80
2023-04-25T23:50:43.731Z,11.88
2023-04-25T23:53:10.203Z,6.72
2023-04-25T23:55:37.077Z,9.98
2023-04-25T23:58:03.827Z,6.55
